KADM/ADM METAR and TAF weather

Enter ICAO airport designator
Station Type Date Time Source
KADM METAR 2021/07/29 02:50 UTC NOAA

KADM 290250Z 00000KT 10SM CLR 29/24 A3000


Station Type Date Time Source
KADM Decoded METAR 2021/07/29 02:50 UTC NOAA

Ardmore, Ardmore Municipal Airport, OK, United States (KADM) 34-18-11N 097-01-10W
Jul 28, 2021 - 10:50 PM EDT / 2021.07.29 0250 UTC
Wind: Calm:0
Visibility: 10 mile(s):0
Sky conditions: clear
Temperature: 84 F (29 C)
Dew Point: 75 F (24 C)
Relative Humidity: 74%
Pressure (altimeter): 30 in. Hg (1015 hPa)
ob: KADM 290250Z 00000KT 10SM CLR 29/24 A3000
cycle: 3

Station Type Date Time Source
KADM TAF UTC NOAA

Error!

Example: see airport list